Woodlawn, Ohio
Current Conditions -  °F | °C
As of 8:53 PM on Sunday 21 Dec 2014 (Local Time) from KHAO Reporting Station
Clear Clear  
Wind Chill: 22°   Ceiling: Unl
Heat Index: 27°   Visibility: 7mi
Dew Point: 23°   Wind: 5mph
Humidity: 85%   Direction: 80°E
Pressure: 30.18"   Gusts: NA
Location:  39.236°N, 84.4599°W
Report Text: KHAO 220153Z AUTO 08004KT 7SM CLR M03/M05 A3018 RMK AO2 SLP230 T10281050
Loading
Personal Weather Stations






























Interactive Weather Map New forecast layout! Learn more

10-Day Weather Forecast

Advertisements
Track Severe Weather on mobile